createdAt,value
2018-12-19T00:01:58.375Z,11.70
2018-12-19T00:04:25.767Z,13.80
2018-12-19T00:06:53.443Z,14.53
2018-12-19T00:09:20.864Z,12.97
2018-12-19T00:11:48.272Z,12.83
2018-12-19T00:14:16.028Z,12.33
2018-12-19T00:16:44.346Z,13.57
2018-12-19T00:19:11.763Z,11.47
2018-12-19T00:21:39.424Z,12.70
2018-12-19T00:24:06.841Z,12.13
2018-12-19T00:26:34.236Z,8.87
2018-12-19T00:29:01.991Z,12.57
2018-12-19T00:31:29.411Z,13.47
2018-12-19T00:33:57.573Z,12.67
2018-12-19T00:36:25.187Z,6.37
2018-12-19T00:38:52.587Z,3.13
2018-12-19T00:41:20.016Z,2.80
2018-12-19T00:43:47.651Z,3.90
2018-12-19T00:46:15.061Z,4.40
2018-12-19T00:48:42.475Z,4.63
2018-12-19T00:51:10.047Z,5.20
2018-12-19T00:53:37.455Z,4.63
2018-12-19T00:56:04.936Z,5.17
2018-12-19T00:58:32.403Z,6.57
2018-12-19T01:00:59.816Z,6.33
2018-12-19T01:03:27.216Z,6.77
2018-12-19T01:05:54.688Z,6.87
2018-12-19T01:08:22.094Z,6.47
2018-12-19T01:10:49.498Z,7.23
2018-12-19T01:13:17.142Z,6.80
2018-12-19T01:15:44.594Z,6.53
2018-12-19T01:18:12.009Z,7.23
2018-12-19T01:20:39.616Z,6.83
2018-12-19T01:23:07.169Z,7.00
2018-12-19T01:25:34.570Z,6.10
2018-12-19T01:28:02.013Z,4.77
2018-12-19T01:30:30.284Z,4.50
2018-12-19T01:32:57.707Z,6.17
2018-12-19T01:35:25.270Z,7.80
2018-12-19T01:37:52.680Z,7.30
2018-12-19T01:40:20.098Z,7.60
2018-12-19T01:42:47.744Z,7.80
2018-12-19T01:45:15.184Z,7.43
2018-12-19T01:47:42.759Z,7.20
2018-12-19T01:50:10.520Z,7.47
2018-12-19T01:52:37.984Z,7.00
2018-12-19T01:55:05.524Z,8.07
2018-12-19T01:57:33.568Z,8.40
2018-12-19T02:00:01.076Z,9.13
2018-12-19T02:02:29.182Z,9.30
2018-12-19T02:04:56.809Z,10.03
2018-12-19T02:07:24.612Z,10.37
2018-12-19T02:09:52.021Z,10.20
2018-12-19T02:12:19.612Z,9.33
2018-12-19T02:14:47.728Z,9.70
2018-12-19T02:17:15.144Z,7.57
2018-12-19T02:19:42.868Z,7.80
2018-12-19T02:22:10.274Z,8.77
2018-12-19T02:24:38.375Z,7.57
2018-12-19T02:27:06.180Z,6.37
2018-12-19T02:29:33.596Z,7.30
2018-12-19T02:32:02.960Z,5.30
2018-12-19T02:34:30.687Z,2.93
2018-12-19T02:36:58.255Z,2.10
2018-12-19T02:39:26.251Z,2.20
2018-12-19T02:41:53.719Z,3.97
2018-12-19T02:44:21.108Z,5.47
2018-12-19T02:46:48.512Z,5.93
2018-12-19T02:49:16.049Z,5.80
2018-12-19T02:51:43.457Z,6.00
2018-12-19T02:54:10.956Z,6.10
2018-12-19T02:56:38.823Z,3.33
2018-12-19T02:59:06.238Z,5.20
2018-12-19T03:01:33.924Z,3.60
2018-12-19T03:04:01.400Z,3.00
2018-12-19T03:06:28.907Z,4.90
2018-12-19T03:08:57.001Z,5.33
2018-12-19T03:11:24.484Z,6.70
2018-12-19T03:13:52.751Z,7.43
2018-12-19T03:16:20.632Z,8.80
2018-12-19T03:18:48.065Z,7.80
2018-12-19T03:21:15.541Z,8.43
2018-12-19T03:23:43.027Z,7.83
2018-12-19T03:26:10.559Z,5.10
2018-12-19T03:28:37.969Z,6.07
2018-12-19T03:31:05.387Z,4.60
2018-12-19T03:33:33.136Z,2.37
2018-12-19T03:36:00.836Z,2.20
2018-12-19T03:38:28.245Z,2.20
2018-12-19T03:40:55.911Z,2.80
2018-12-19T03:43:23.339Z,2.17
2018-12-19T03:45:50.819Z,1.97
2018-12-19T03:48:24.127Z,2.20
2018-12-19T03:50:51.513Z,2.20
2018-12-19T03:53:18.915Z,2.00
2018-12-19T03:55:46.694Z,3.60
2018-12-19T03:58:14.580Z,5.20
2018-12-19T04:00:41.983Z,6.53
2018-12-19T04:03:09.452Z,7.37
2018-12-19T04:05:36.924Z,8.60
2018-12-19T04:08:04.340Z,10.10
2018-12-19T04:10:31.948Z,10.33
2018-12-19T04:12:59.396Z,10.57
2018-12-19T04:15:26.816Z,11.07
2018-12-19T04:17:54.274Z,10.50
2018-12-19T04:20:21.694Z,10.47
2018-12-19T04:22:49.204Z,10.13
2018-12-19T04:25:16.694Z,10.10
2018-12-19T04:27:44.189Z,9.20
2018-12-19T04:30:12.799Z,10.27
2018-12-19T04:32:40.904Z,11.33
2018-12-19T04:35:08.315Z,11.07
2018-12-19T04:37:35.719Z,9.30
2018-12-19T04:40:05.792Z,9.87
2018-12-19T04:42:33.879Z,8.87
2018-12-19T04:45:01.405Z,9.10
2018-12-19T04:47:29.023Z,9.70
2018-12-19T04:49:56.430Z,9.70
2018-12-19T04:52:24.321Z,8.33
2018-12-19T04:54:52.004Z,8.70
2018-12-19T04:57:19.466Z,8.90
2018-12-19T04:59:46.872Z,8.40
2018-12-19T05:02:14.637Z,7.93
2018-12-19T05:04:42.148Z,7.33
2018-12-19T05:07:09.857Z,8.07
2018-12-19T05:09:37.559Z,7.03
2018-12-19T05:12:05.239Z,6.17
2018-12-19T05:14:33.007Z,4.83
2018-12-19T05:17:00.551Z,4.23
2018-12-19T05:19:28.263Z,3.50
2018-12-19T05:21:55.663Z,3.17
2018-12-19T05:24:23.102Z,2.40
2018-12-19T05:26:51.429Z,1.90
2018-12-19T05:29:18.832Z,1.80
2018-12-19T05:31:46.415Z,2.20
2018-12-19T05:34:13.831Z,2.00
2018-12-19T05:36:41.339Z,1.90
2018-12-19T05:39:09.108Z,1.90
2018-12-19T05:41:37.452Z,2.03
2018-12-19T05:44:04.847Z,1.93
2018-12-19T05:46:32.662Z,1.87
2018-12-19T05:49:00.105Z,1.80
2018-12-19T05:51:27.507Z,1.63
2018-12-19T05:53:55.847Z,1.93
2018-12-19T05:56:23.252Z,2.00
2018-12-19T05:58:50.663Z,1.87
2018-12-19T06:01:18.264Z,2.00
2018-12-19T06:03:45.664Z,2.00
2018-12-19T06:06:13.067Z,1.87
2018-12-19T06:08:40.624Z,2.10
2018-12-19T06:11:08.023Z,1.90
2018-12-19T06:13:35.423Z,1.93
2018-12-19T06:16:02.947Z,1.77
2018-12-19T06:18:30.348Z,1.63
2018-12-19T06:20:58.640Z,2.00
2018-12-19T06:23:26.187Z,1.70
2018-12-19T06:25:53.600Z,1.93
2018-12-19T06:28:21.108Z,2.10
2018-12-19T06:30:48.668Z,1.90
2018-12-19T06:33:16.075Z,1.90
2018-12-19T06:35:44.443Z,1.47
2018-12-19T06:38:12.030Z,1.80
2018-12-19T06:40:39.427Z,2.10
2018-12-19T06:43:07.216Z,1.90
2018-12-19T06:45:34.964Z,2.00
2018-12-19T06:48:02.555Z,1.80
2018-12-19T06:50:30.055Z,1.70
2018-12-19T06:52:57.726Z,1.90
2018-12-19T06:55:25.304Z,2.27
2018-12-19T06:57:52.715Z,1.90
2018-12-19T07:00:20.393Z,2.07
2018-12-19T07:02:47.795Z,2.13
2018-12-19T07:05:15.214Z,2.07
2018-12-19T07:07:42.659Z,2.00
2018-12-19T07:10:10.065Z,2.17
2018-12-19T07:12:37.716Z,1.90
2018-12-19T07:15:05.399Z,2.00
2018-12-19T07:17:32.826Z,1.90
2018-12-19T07:20:00.228Z,2.20
2018-12-19T07:22:28.016Z,1.90
2018-12-19T07:24:56.023Z,1.80
2018-12-19T07:27:23.420Z,2.20
2018-12-19T07:29:51.216Z,2.33
2018-12-19T07:32:18.620Z,3.03
2018-12-19T07:34:46.704Z,4.20
2018-12-19T07:37:14.296Z,3.77
2018-12-19T07:39:42.748Z,2.10
2018-12-19T07:42:10.156Z,2.10
2018-12-19T07:44:37.804Z,1.80
2018-12-19T07:47:05.506Z,2.20
2018-12-19T07:49:32.934Z,2.17
2018-12-19T07:52:00.624Z,1.80
2018-12-19T07:54:28.022Z,1.90
2018-12-19T07:56:55.428Z,2.10
2018-12-19T07:59:22.948Z,1.80
2018-12-19T08:01:50.344Z,1.70
2018-12-19T08:04:18.112Z,1.90
2018-12-19T08:06:45.723Z,1.93
2018-12-19T08:09:13.134Z,1.50
2018-12-19T08:11:40.531Z,2.03
2018-12-19T08:14:08.204Z,1.80
2018-12-19T08:16:35.707Z,1.70
2018-12-19T08:19:03.179Z,2.03
2018-12-19T08:21:30.633Z,1.67
2018-12-19T08:23:58.761Z,1.97
2018-12-19T08:26:26.459Z,1.70
2018-12-19T08:28:53.913Z,1.77
2018-12-19T08:31:21.303Z,1.90
2018-12-19T08:33:48.707Z,2.00
2018-12-19T08:36:16.333Z,2.00
2018-12-19T08:38:44.462Z,1.50
2018-12-19T08:41:11.855Z,1.80
2018-12-19T08:43:39.428Z,1.80
2018-12-19T08:46:06.855Z,2.20
2018-12-19T08:48:34.254Z,1.87
2018-12-19T08:51:02.608Z,2.40
2018-12-19T08:53:30.064Z,2.60
2018-12-19T08:55:57.459Z,2.40
2018-12-19T08:58:25.084Z,2.80
2018-12-19T09:00:52.480Z,3.07
2018-12-19T09:03:20.355Z,2.60
2018-12-19T09:05:47.865Z,2.40
2018-12-19T09:08:15.262Z,2.23
2018-12-19T09:10:42.653Z,2.40
2018-12-19T09:13:10.242Z,2.40
2018-12-19T09:15:43.309Z,2.57
2018-12-19T09:18:10.783Z,2.27
2018-12-19T09:20:38.344Z,2.70
2018-12-19T09:23:05.748Z,2.90
2018-12-19T09:25:33.930Z,2.80
2018-12-19T09:28:02.344Z,3.23
2018-12-19T09:30:29.806Z,2.47
2018-12-19T09:32:57.811Z,3.27
2018-12-19T09:35:25.437Z,2.70
2018-12-19T09:37:52.860Z,6.77
2018-12-19T09:40:20.259Z,2.60
2018-12-19T09:42:48.071Z,2.40
2018-12-19T09:45:15.474Z,2.53
2018-12-19T09:47:42.863Z,2.27
2018-12-19T09:50:10.888Z,1.90
2018-12-19T09:52:39.210Z,2.30
2018-12-19T09:55:06.599Z,2.60
2018-12-19T09:57:34.286Z,2.50
2018-12-19T10:00:01.679Z,2.30
2018-12-19T10:02:29.072Z,2.40
2018-12-19T10:04:56.658Z,2.37
2018-12-19T10:07:24.114Z,2.70
2018-12-19T10:09:51.800Z,2.60
2018-12-19T10:12:19.539Z,2.40
2018-12-19T10:14:46.939Z,2.30
2018-12-19T10:17:14.360Z,2.40
2018-12-19T10:19:42.226Z,2.47
2018-12-19T10:22:09.674Z,2.40
2018-12-19T10:24:42.567Z,2.30
2018-12-19T10:27:12.034Z,2.00
2018-12-19T10:29:39.599Z,2.23
2018-12-19T10:32:07.291Z,2.30
2018-12-19T10:34:34.838Z,2.73
2018-12-19T10:37:02.997Z,2.77
2018-12-19T10:39:30.389Z,2.97
2018-12-19T10:41:57.931Z,2.87
2018-12-19T10:44:25.375Z,3.03
2018-12-19T10:46:52.795Z,3.07
2018-12-19T10:49:21.329Z,2.63
2018-12-19T10:51:48.721Z,2.93
2018-12-19T10:54:16.167Z,2.63
2018-12-19T10:56:43.689Z,2.87
2018-12-19T10:59:11.083Z,3.23
2018-12-19T11:01:38.493Z,3.40
2018-12-19T11:04:06.072Z,3.33
2018-12-19T11:06:34.175Z,2.33
2018-12-19T11:09:01.875Z,2.87
2018-12-19T11:11:32.278Z,3.10
2018-12-19T11:13:59.005Z,2.80
2018-12-19T11:16:26.400Z,2.97
2018-12-19T11:18:53.987Z,3.37
2018-12-19T11:21:21.433Z,3.40
2018-12-19T11:23:48.909Z,3.30
2018-12-19T11:26:16.455Z,3.40
2018-12-19T11:28:43.852Z,3.40
2018-12-19T11:31:11.257Z,3.50
2018-12-19T11:33:39.031Z,2.87
2018-12-19T11:36:06.627Z,3.13
2018-12-19T11:38:34.221Z,2.40
2018-12-19T11:41:02.835Z,3.03
2018-12-19T11:43:30.516Z,2.80
2018-12-19T11:45:58.099Z,2.70
2018-12-19T11:48:25.719Z,2.90
2018-12-19T11:50:53.107Z,2.67
2018-12-19T11:53:20.514Z,3.03
2018-12-19T11:55:48.194Z,2.67
2018-12-19T11:58:16.367Z,2.67
2018-12-19T12:00:43.759Z,2.53
2018-12-19T12:03:11.379Z,3.10
2018-12-19T12:05:38.776Z,2.80
2018-12-19T12:08:06.175Z,2.77
2018-12-19T12:10:33.751Z,2.50
2018-12-19T12:13:01.151Z,3.00
2018-12-19T12:15:28.553Z,3.00
2018-12-19T12:17:56.067Z,3.13
2018-12-19T12:20:23.572Z,3.40
2018-12-19T12:22:50.971Z,3.77
2018-12-19T12:25:18.393Z,3.13
2018-12-19T12:27:46.400Z,3.67
2018-12-19T12:30:13.784Z,3.40
2018-12-19T12:32:41.380Z,2.80
2018-12-19T12:35:08.903Z,2.73
2018-12-19T12:37:36.924Z,2.93
2018-12-19T12:40:07.229Z,2.90
2018-12-19T12:42:34.684Z,3.00
2018-12-19T12:45:02.440Z,3.00
2018-12-19T12:47:30.098Z,3.40
2018-12-19T12:49:57.697Z,3.70
2018-12-19T12:52:25.102Z,2.70
2018-12-19T12:54:52.684Z,3.47
2018-12-19T12:57:20.290Z,3.90
2018-12-19T12:59:47.691Z,4.77
2018-12-19T13:02:15.256Z,3.20
2018-12-19T13:04:42.657Z,2.87
2018-12-19T13:07:10.043Z,3.37
2018-12-19T13:09:37.736Z,3.30
2018-12-19T13:12:05.156Z,2.90
2018-12-19T13:14:32.625Z,3.53
2018-12-19T13:17:00.428Z,3.40
2018-12-19T13:19:28.624Z,3.60
2018-12-19T13:21:56.016Z,4.33
2018-12-19T13:24:23.576Z,4.57
2018-12-19T13:26:50.960Z,4.33
2018-12-19T13:29:18.357Z,4.00
2018-12-19T13:31:46.148Z,4.03
2018-12-19T13:34:14.158Z,4.00
2018-12-19T13:36:41.852Z,4.93
2018-12-19T13:39:09.544Z,4.33
2018-12-19T13:41:36.947Z,5.50
2018-12-19T13:44:04.612Z,5.67
2018-12-19T13:46:32.327Z,5.97
2018-12-19T13:48:59.728Z,8.37
2018-12-19T13:51:27.128Z,10.30
2018-12-19T13:53:54.724Z,10.47
2018-12-19T13:56:22.128Z,10.90
2018-12-19T13:58:49.887Z,12.30
2018-12-19T14:01:17.503Z,11.47
2018-12-19T14:03:44.907Z,11.80
2018-12-19T14:06:12.302Z,12.00
2018-12-19T14:08:40.773Z,10.47
2018-12-19T14:11:08.167Z,6.27
2018-12-19T14:13:35.565Z,4.50
2018-12-19T14:16:03.160Z,4.03
2018-12-19T14:18:30.551Z,4.07
2018-12-19T14:20:57.957Z,3.80
2018-12-19T14:23:25.426Z,3.67
2018-12-19T14:25:52.828Z,5.60
2018-12-19T14:28:20.223Z,25.00
2018-12-19T14:30:47.667Z,121.90
2018-12-19T14:33:15.067Z,28.53
2018-12-19T14:35:42.534Z,23.83
2018-12-19T14:38:10.077Z,17.13
2018-12-19T14:40:39.315Z,12.97
2018-12-19T14:43:06.725Z,18.80
2018-12-19T14:45:34.412Z,17.57
2018-12-19T14:48:01.813Z,33.37
2018-12-19T14:50:29.208Z,31.30
2018-12-19T14:52:56.973Z,28.53
2018-12-19T14:55:24.582Z,25.17
2018-12-19T14:57:51.985Z,16.13
2018-12-19T15:00:19.738Z,19.30
2018-12-19T15:02:47.138Z,15.63
2018-12-19T15:05:14.531Z,12.03
2018-12-19T15:07:42.221Z,31.03
2018-12-19T15:10:09.741Z,12.70
2018-12-19T15:12:37.525Z,16.40
2018-12-19T15:15:07.202Z,29.63
2018-12-19T15:17:34.677Z,25.00
2018-12-19T15:20:02.077Z,16.20
2018-12-19T15:22:29.517Z,11.40
2018-12-19T15:24:56.923Z,13.20
2018-12-19T15:27:24.383Z,8.97
2018-12-19T15:29:51.814Z,7.90
2018-12-19T15:32:19.220Z,5.07
2018-12-19T15:34:47.328Z,4.97
2018-12-19T15:37:14.963Z,5.70
2018-12-19T15:39:42.445Z,13.73
2018-12-19T15:42:09.827Z,6.70
2018-12-19T15:44:37.343Z,8.30
2018-12-19T15:47:04.739Z,7.50
2018-12-19T15:49:32.135Z,5.87
2018-12-19T15:51:59.716Z,9.13
2018-12-19T15:54:27.117Z,8.30
2018-12-19T15:56:54.529Z,6.50
2018-12-19T15:59:22.081Z,6.70
2018-12-19T16:01:49.485Z,13.20
2018-12-19T16:04:16.886Z,8.30
2018-12-19T16:06:44.674Z,5.97
2018-12-19T16:09:12.061Z,5.80
2018-12-19T16:11:40.345Z,6.63
2018-12-19T16:14:07.856Z,7.47
2018-12-19T16:16:35.250Z,9.67
2018-12-19T16:19:02.651Z,12.60
2018-12-19T16:21:30.449Z,15.57
2018-12-19T16:23:58.777Z,16.73
2018-12-19T16:26:26.169Z,17.57
2018-12-19T16:28:53.664Z,19.10
2018-12-19T16:31:21.059Z,18.70
2018-12-19T16:33:48.486Z,17.63
2018-12-19T16:36:16.219Z,19.73
2018-12-19T16:38:43.623Z,19.40
2018-12-19T16:41:11.027Z,20.37
2018-12-19T16:43:38.768Z,18.97
2018-12-19T16:46:06.287Z,24.57
2018-12-19T16:48:33.757Z,22.77
2018-12-19T16:51:01.197Z,20.77
2018-12-19T16:53:28.600Z,20.97
2018-12-19T16:55:56.803Z,29.53
2018-12-19T16:58:24.327Z,23.03
2018-12-19T17:00:51.741Z,24.07
2018-12-19T17:03:19.333Z,12.63
2018-12-19T17:05:47.184Z,11.57
2018-12-19T17:08:14.579Z,13.00
2018-12-19T17:10:42.019Z,9.20
2018-12-19T17:13:09.582Z,10.93
2018-12-19T17:15:37.367Z,7.07
2018-12-19T17:18:04.755Z,6.57
2018-12-19T17:20:33.302Z,6.80
2018-12-19T17:23:00.968Z,6.80
2018-12-19T17:25:28.365Z,5.93
2018-12-19T17:27:56.115Z,5.60
2018-12-19T17:30:23.511Z,4.80
2018-12-19T17:32:50.921Z,6.07
2018-12-19T17:35:18.633Z,8.80
2018-12-19T17:37:46.215Z,6.83
2018-12-19T17:40:13.625Z,9.50
2018-12-19T17:42:41.075Z,7.23
2018-12-19T17:45:08.474Z,7.30
2018-12-19T17:47:36.475Z,8.57
2018-12-19T17:50:05.458Z,7.33
2018-12-19T17:52:32.842Z,8.50
2018-12-19T17:55:00.246Z,8.90
2018-12-19T17:57:27.700Z,6.80
2018-12-19T17:59:55.122Z,6.50
2018-12-19T18:02:22.988Z,6.70
2018-12-19T18:04:50.589Z,6.07
2018-12-19T18:07:18.358Z,6.27
2018-12-19T18:09:45.936Z,5.30
2018-12-19T18:12:13.360Z,5.70
2018-12-19T18:14:40.828Z,6.70
2018-12-19T18:17:08.616Z,6.97
2018-12-19T18:19:36.134Z,7.97
2018-12-19T18:22:03.546Z,7.27
2018-12-19T18:24:30.941Z,9.00
2018-12-19T18:26:58.388Z,9.27
2018-12-19T18:29:25.793Z,8.70
2018-12-19T18:31:53.284Z,7.93
2018-12-19T18:34:20.986Z,8.53
2018-12-19T18:36:49.352Z,8.83
2018-12-19T18:39:16.821Z,8.57
2018-12-19T18:41:44.523Z,8.80
2018-12-19T18:44:11.947Z,10.87
2018-12-19T18:46:39.333Z,12.00
2018-12-19T18:49:06.847Z,13.80
2018-12-19T18:51:34.315Z,15.13
2018-12-19T18:54:02.607Z,18.23
2018-12-19T18:56:30.317Z,25.40
2018-12-19T18:58:57.772Z,19.77
2018-12-19T19:01:25.261Z,20.47
2018-12-19T19:03:52.826Z,22.27
2018-12-19T19:06:20.273Z,16.97
2018-12-19T19:08:47.762Z,17.47
2018-12-19T19:11:15.604Z,19.67
2018-12-19T19:13:44.042Z,17.53
2018-12-19T19:16:11.544Z,18.13
2018-12-19T19:18:38.991Z,19.33
2018-12-19T19:21:06.623Z,15.03
2018-12-19T19:23:34.033Z,13.63
2018-12-19T19:26:01.676Z,15.73
2018-12-19T19:28:29.092Z,11.03
2018-12-19T19:30:56.485Z,5.43
2018-12-19T19:33:24.240Z,6.07
2018-12-19T19:35:51.957Z,5.90
2018-12-19T19:38:19.460Z,6.07
2018-12-19T19:40:46.978Z,6.20
2018-12-19T19:43:14.372Z,7.47
2018-12-19T19:45:41.784Z,7.63
2018-12-19T19:48:09.600Z,8.40
2018-12-19T19:50:37.261Z,10.23
2018-12-19T19:53:04.730Z,9.63
2018-12-19T19:55:32.281Z,7.70
2018-12-19T19:57:59.711Z,8.23
2018-12-19T20:00:28.668Z,8.87
2018-12-19T20:02:56.201Z,7.30
2018-12-19T20:05:23.592Z,7.00
2018-12-19T20:07:51.013Z,6.13
2018-12-19T20:10:18.511Z,5.90
2018-12-19T20:12:45.934Z,5.33
2018-12-19T20:15:13.845Z,5.17
2018-12-19T20:17:41.720Z,4.73
2018-12-19T20:20:09.108Z,4.67
2018-12-19T20:22:36.505Z,4.97
2018-12-19T20:25:04.388Z,5.10
2018-12-19T20:27:31.868Z,5.37
2018-12-19T20:29:59.317Z,6.43
2018-12-19T20:32:27.048Z,6.80
2018-12-19T20:34:54.447Z,6.97
2018-12-19T20:37:21.886Z,5.90
2018-12-19T20:39:49.468Z,5.43
2018-12-19T20:42:16.864Z,5.80
2018-12-19T20:44:44.328Z,5.90
2018-12-19T20:47:11.748Z,5.73
2018-12-19T20:49:39.148Z,9.70
2018-12-19T20:52:06.563Z,8.77
2018-12-19T20:54:34.120Z,31.27
2018-12-19T20:57:01.618Z,8.93
2018-12-19T20:59:29.566Z,8.50
2018-12-19T21:01:57.302Z,7.70
2018-12-19T21:04:24.767Z,7.63
2018-12-19T21:06:52.173Z,7.23
2018-12-19T21:09:19.858Z,7.63
2018-12-19T21:11:47.252Z,7.70
2018-12-19T21:14:15.115Z,7.63
2018-12-19T21:16:48.388Z,7.97
2018-12-19T21:19:15.842Z,8.43
2018-12-19T21:21:43.765Z,7.67
2018-12-19T21:24:11.272Z,7.47
2018-12-19T21:26:38.685Z,7.73
2018-12-19T21:29:06.089Z,8.23
2018-12-19T21:31:33.529Z,8.73
2018-12-19T21:34:01.023Z,5.77
2018-12-19T21:36:28.419Z,4.60
2018-12-19T21:38:56.230Z,4.97
2018-12-19T21:41:23.623Z,5.10
2018-12-19T21:43:53.881Z,4.67
2018-12-19T21:46:20.761Z,4.33
2018-12-19T21:48:48.502Z,4.80
2018-12-19T21:51:16.085Z,5.17
2018-12-19T21:53:43.546Z,4.90
2018-12-19T21:56:10.939Z,4.70
2018-12-19T21:58:38.687Z,5.67
2018-12-19T22:01:06.306Z,5.27
2018-12-19T22:03:33.797Z,5.67
2018-12-19T22:06:01.687Z,6.80
2018-12-19T22:08:29.367Z,6.67
2018-12-19T22:10:57.189Z,9.67
2018-12-19T22:13:24.750Z,9.50
2018-12-19T22:15:52.270Z,7.43
2018-12-19T22:21:29.574Z,5.70
2018-12-19T22:23:56.986Z,7.57
2018-12-19T22:26:24.467Z,8.57
2018-12-19T22:28:52.085Z,5.83
2018-12-19T22:31:19.610Z,5.80
2018-12-19T22:33:47.208Z,10.17
2018-12-19T22:36:14.950Z,6.40
2018-12-19T22:38:42.551Z,9.97
2018-12-19T22:41:09.948Z,9.87
2018-12-19T22:43:37.503Z,21.20
2018-12-19T22:46:05.008Z,14.53
2018-12-19T22:48:32.629Z,11.47
2018-12-19T22:51:00.398Z,11.30
2018-12-19T22:53:27.901Z,13.27
2018-12-19T22:55:55.412Z,13.10
2018-12-19T22:58:22.933Z,12.60
2018-12-19T23:00:56.361Z,13.13
2018-12-19T23:03:25.990Z,11.63
2018-12-19T23:05:53.403Z,47.33
2018-12-19T23:08:21.512Z,34.73
2018-12-19T23:10:49.500Z,13.70
2018-12-19T23:13:17.109Z,12.33
2018-12-19T23:15:44.544Z,11.90
2018-12-19T23:18:17.832Z,11.07
2018-12-19T23:20:45.436Z,11.33
2018-12-19T23:23:12.925Z,12.47
2018-12-19T23:25:40.518Z,12.60
2018-12-19T23:28:07.966Z,10.70
2018-12-19T23:30:35.477Z,10.83
2018-12-19T23:33:03.415Z,8.33
2018-12-19T23:35:31.155Z,8.50
2018-12-19T23:37:58.968Z,8.37
2018-12-19T23:40:26.725Z,8.30
2018-12-19T23:42:55.270Z,7.60
2018-12-19T23:45:22.968Z,8.60
2018-12-19T23:47:50.600Z,8.20
2018-12-19T23:50:17.989Z,7.70
2018-12-19T23:52:45.433Z,6.87
2018-12-19T23:55:13.120Z,7.67
2018-12-19T23:57:40.717Z,7.17
